Seapride — 9HA3272 — position and weather

sailwx.info

Track history (hours):
 
Tides and Currents Weather Stations Pressure Air Temp Water Temp Dewpoint Dewpoint Depression Visibility Wind Speed Wind Dir Waves Ship Positions

Seapride

Last reported at 2017-Sep-20 20:37 UTC. Time now 2017-Sep-21 01:25 UTC.
Position N 42°58' E 028°07'.

Length 183 m; draft 6.5 m.

Type: Ship (hazmat cat A). MMSI: 229365000.

Date/timePositionNaut miles runAvg speedWind from/ knotsBaromVisibWave heightAir tempDewpointWater temp
2017-Sep-20 20:37N 42°58' E 028°07'213.2
2017-Sep-20 20:29N 42°60' E 028°05'612.2
2017-Sep-20 20:00N 43°04' E 028°00'2 3.0
2017-Sep-20 19:29N 43°05' E 027°59'1 1.1
2017-Sep-20 18:33N 43°06' E 027°59'0 1.1
2017-Sep-20 18:29N 43°07' E 027°59'2 3.3
2017-Sep-20 17:48N 43°08' E 028°01'1 2.4
2017-Sep-20 17:26N 43°07' E 028°01'6 4.9
2017-Sep-20 16:12N 43°02' E 028°04'3 7.3
2017-Sep-20 15:50N 43°01' E 028°01'3 6.9
2017-Sep-20 15:28N 42°59' E 028°02'4 8.0
2017-Sep-20 14:59N 43°02' E 028°05'5 4.9
2017-Sep-20 14:00N 43°05' E 028°09'715.0
2017-Sep-20 13:31N 42°59' E 028°03'3 6.0
2017-Sep-20 13:01N 43°02' E 028°03'813.6
2017-Sep-20 12:26N 43°10' E 028°05'613.2
2017-Sep-20 11:59N 43°04' E 028°04'1 1.2
2017-Sep-20 10:59N 43°06' E 028°04'5 8.2
2017-Sep-20 10:18N 43°00' E 028°04'1 2.1
2017-Sep-20 10:00N 42°60' E 028°04'0 0.2
2017-Sep-20 09:30N 42°60' E 028°04'0 0.4
2017-Sep-20 09:00N 42°59' E 028°04'0 0.2
2017-Sep-20 08:27N 42°59' E 028°04'11 7.8
2017-Sep-20 06:59N 43°11' E 028°03'  
Track history (hours):
 
Tides and Currents Weather Stations Pressure Air Temp Water Temp Dewpoint Dewpoint Depression Visibility Wind Speed Wind Dir Waves Ship Positions

Seapride

Last reported at 2017-Sep-20 20:37 UTC. Time now 2017-Sep-21 01:25 UTC.
Position N 42°58' E 028°07'.

Length 183 m; draft 6.5 m.

Type: Ship (hazmat cat A). MMSI: 229365000.

Date/timePositionNaut miles runAvg speedWind from/ knotsBaromVisibWave heightAir tempDewpointWater temp
2017-Sep-20 20:37N 42°58' E 028°07'213.2
2017-Sep-20 20:29N 42°60' E 028°05'612.2
2017-Sep-20 20:00N 43°04' E 028°00'2 3.0
2017-Sep-20 19:29N 43°05' E 027°59'1 1.1
2017-Sep-20 18:33N 43°06' E 027°59'0 1.1
2017-Sep-20 18:29N 43°07' E 027°59'2 3.3
2017-Sep-20 17:48N 43°08' E 028°01'1 2.4
2017-Sep-20 17:26N 43°07' E 028°01'6 4.9
2017-Sep-20 16:12N 43°02' E 028°04'3 7.3
2017-Sep-20 15:50N 43°01' E 028°01'3 6.9
2017-Sep-20 15:28N 42°59' E 028°02'4 8.0
2017-Sep-20 14:59N 43°02' E 028°05'5 4.9
2017-Sep-20 14:00N 43°05' E 028°09'715.0
2017-Sep-20 13:31N 42°59' E 028°03'3 6.0
2017-Sep-20 13:01N 43°02' E 028°03'813.6
2017-Sep-20 12:26N 43°10' E 028°05'613.2
2017-Sep-20 11:59N 43°04' E 028°04'1 1.2
2017-Sep-20 10:59N 43°06' E 028°04'5 8.2
2017-Sep-20 10:18N 43°00' E 028°04'1 2.1
2017-Sep-20 10:00N 42°60' E 028°04'0 0.2
2017-Sep-20 09:30N 42°60' E 028°04'0 0.4
2017-Sep-20 09:00N 42°59' E 028°04'0 0.2
2017-Sep-20 08:27N 42°59' E 028°04'11 7.8
2017-Sep-20 06:59N 43°11' E 028°03'  

Dump ship's entire track history